sensor_id;sensor_type;location;lat;lon;timestamp;pressure;altitude;pressure_sealevel;temperature;humidity
12897;BME280;6516;35.028;32.372;2023-05-11T00:01:37;99632.53;;;16.13;59.72
12897;BME280;6516;35.028;32.372;2023-05-11T00:04:05;99629.94;;;16.11;60.34
12897;BME280;6516;35.028;32.372;2023-05-11T00:06:32;99631.75;;;16.11;60.94
12897;BME280;6516;35.028;32.372;2023-05-11T00:09:00;99629.88;;;16.13;60.39
12897;BME280;6516;35.028;32.372;2023-05-11T00:11:28;99628.72;;;16.18;60.09
12897;BME280;6516;35.028;32.372;2023-05-11T00:13:56;99630.94;;;16.27;59.25
12897;BME280;6516;35.028;32.372;2023-05-11T00:16:24;99623.38;;;16.37;58.92
12897;BME280;6516;35.028;32.372;2023-05-11T00:18:53;99632.63;;;16.47;58.76
12897;BME280;6516;35.028;32.372;2023-05-11T00:21:21;99623.47;;;16.52;58.55
12897;BME280;6516;35.028;32.372;2023-05-11T00:23:48;99624.03;;;16.59;58.86
12897;BME280;6516;35.028;32.372;2023-05-11T00:26:16;99623.00;;;16.61;58.37
12897;BME280;6516;35.028;32.372;2023-05-11T00:28:44;99631.66;;;16.66;57.76
12897;BME280;6516;35.028;32.372;2023-05-11T00:31:13;99634.53;;;16.79;56.67
12897;BME280;6516;35.028;32.372;2023-05-11T00:33:40;99640.88;;;16.76;56.91
12897;BME280;6516;35.028;32.372;2023-05-11T00:36:10;99641.50;;;16.81;56.16
12897;BME280;6516;35.028;32.372;2023-05-11T00:38:37;99643.19;;;16.82;56.78
12897;BME280;6516;35.028;32.372;2023-05-11T00:41:05;99649.94;;;16.89;56.73
12897;BME280;6516;35.028;32.372;2023-05-11T00:43:34;99642.41;;;16.63;58.18
12897;BME280;6516;35.028;32.372;2023-05-11T00:46:02;99641.09;;;16.55;58.68
12897;BME280;6516;35.028;32.372;2023-05-11T00:48:30;99640.63;;;16.47;59.03
12897;BME280;6516;35.028;32.372;2023-05-11T00:50:58;99642.88;;;16.36;59.11
12897;BME280;6516;35.028;32.372;2023-05-11T00:53:28;99640.41;;;16.33;58.76
12897;BME280;6516;35.028;32.372;2023-05-11T00:55:56;99639.78;;;16.28;59.14
12897;BME280;6516;35.028;32.372;2023-05-11T00:58:24;99638.81;;;16.29;59.50
12897;BME280;6516;35.028;32.372;2023-05-11T01:00:52;99644.63;;;16.37;58.71
12897;BME280;6516;35.028;32.372;2023-05-11T01:03:20;99640.88;;;16.41;58.52
12897;BME280;6516;35.028;32.372;2023-05-11T01:05:52;99635.28;;;16.47;57.64
12897;BME280;6516;35.028;32.372;2023-05-11T01:08:34;99636.22;;;16.63;57.86
12897;BME280;6516;35.028;32.372;2023-05-11T01:11:11;99640.28;;;16.53;58.29
12897;BME280;6516;35.028;32.372;2023-05-11T01:13:45;99639.81;;;16.45;58.27
12897;BME280;6516;35.028;32.372;2023-05-11T01:16:19;99639.03;;;16.43;58.83
12897;BME280;6516;35.028;32.372;2023-05-11T01:18:51;99633.78;;;16.41;58.07
12897;BME280;6516;35.028;32.372;2023-05-11T01:21:22;99639.81;;;16.45;58.57
12897;BME280;6516;35.028;32.372;2023-05-11T01:24:11;99638.59;;;16.33;58.83
12897;BME280;6516;35.028;32.372;2023-05-11T01:27:19;99641.94;;;16.20;59.78
12897;BME280;6516;35.028;32.372;2023-05-11T01:30:25;99641.66;;;16.07;60.13
12897;BME280;6516;35.028;32.372;2023-05-11T01:32:58;99637.56;;;16.00;60.16
12897;BME280;6516;35.028;32.372;2023-05-11T01:35:32;99633.69;;;16.07;59.62
12897;BME280;6516;35.028;32.372;2023-05-11T01:38:03;99625.31;;;15.98;60.57
12897;BME280;6516;35.028;32.372;2023-05-11T01:40:33;99639.91;;;15.89;60.62
12897;BME280;6516;35.028;32.372;2023-05-11T01:43:05;99636.66;;;15.83;61.52
12897;BME280;6516;35.028;32.372;2023-05-11T01:45:40;99625.88;;;15.86;60.85
12897;BME280;6516;35.028;32.372;2023-05-11T01:48:15;99624.41;;;15.80;61.29
12897;BME280;6516;35.028;32.372;2023-05-11T01:50:44;99627.06;;;15.80;61.09
12897;BME280;6516;35.028;32.372;2023-05-11T01:53:14;99634.66;;;15.88;61.04
12897;BME280;6516;35.028;32.372;2023-05-11T01:55:42;99624.66;;;15.93;60.36
12897;BME280;6516;35.028;32.372;2023-05-11T01:58:13;99630.47;;;15.82;61.36
12897;BME280;6516;35.028;32.372;2023-05-11T02:00:45;99627.56;;;15.70;61.89
12897;BME280;6516;35.028;32.372;2023-05-11T02:03:14;99629.25;;;15.71;62.43
12897;BME280;6516;35.028;32.372;2023-05-11T02:05:43;99631.78;;;15.74;61.29
12897;BME280;6516;35.028;32.372;2023-05-11T02:08:13;99627.38;;;15.73;61.19
12897;BME280;6516;35.028;32.372;2023-05-11T02:10:41;99620.44;;;15.70;61.35
12897;BME280;6516;35.028;32.372;2023-05-11T02:13:11;99621.88;;;15.77;60.86
12897;BME280;6516;35.028;32.372;2023-05-11T02:15:41;99624.03;;;15.88;59.66
12897;BME280;6516;35.028;32.372;2023-05-11T02:18:13;99617.06;;;15.85;60.57
12897;BME280;6516;35.028;32.372;2023-05-11T02:20:43;99623.00;;;15.72;61.65
12897;BME280;6516;35.028;32.372;2023-05-11T02:23:12;99624.25;;;15.65;61.76
12897;BME280;6516;35.028;32.372;2023-05-11T02:25:42;99620.59;;;15.67;61.47
12897;BME280;6516;35.028;32.372;2023-05-11T02:28:10;99617.72;;;15.72;60.63
12897;BME280;6516;35.028;32.372;2023-05-11T02:30:41;99608.97;;;15.70;61.32
12897;BME280;6516;35.028;32.372;2023-05-11T02:33:18;99615.72;;;15.58;62.61
12897;BME280;6516;35.028;32.372;2023-05-11T02:35:50;99615.66;;;15.60;62.01
12897;BME280;6516;35.028;32.372;2023-05-11T02:38:19;99617.88;;;15.69;61.43
12897;BME280;6516;35.028;32.372;2023-05-11T02:40:49;99618.34;;;15.77;60.58
12897;BME280;6516;35.028;32.372;2023-05-11T02:43:23;99618.66;;;15.89;59.80
12897;BME280;6516;35.028;32.372;2023-05-11T02:45:59;99632.06;;;15.86;60.66
12897;BME280;6516;35.028;32.372;2023-05-11T02:48:36;99623.47;;;15.81;60.97
12897;BME280;6516;35.028;32.372;2023-05-11T02:51:07;99625.03;;;15.85;60.25
12897;BME280;6516;35.028;32.372;2023-05-11T02:53:39;99624.16;;;15.85;60.27
12897;BME280;6516;35.028;32.372;2023-05-11T02:56:08;99620.44;;;15.89;60.62
12897;BME280;6516;35.028;32.372;2023-05-11T02:58:35;99633.78;;;15.87;60.67
12897;BME280;6516;35.028;32.372;2023-05-11T03:01:06;99627.25;;;15.94;60.02
12897;BME280;6516;35.028;32.372;2023-05-11T03:03:34;99623.91;;;16.08;58.96
12897;BME280;6516;35.028;32.372;2023-05-11T03:06:02;99621.69;;;16.17;58.85
12897;BME280;6516;35.028;32.372;2023-05-11T03:08:30;99618.97;;;16.19;59.34
12897;BME280;6516;35.028;32.372;2023-05-11T03:10:59;99622.53;;;16.18;59.82
12897;BME280;6516;35.028;32.372;2023-05-11T03:13:28;99628.34;;;16.26;59.53
12897;BME280;6516;35.028;32.372;2023-05-11T03:15:57;99631.69;;;16.29;59.39
12897;BME280;6516;35.028;32.372;2023-05-11T03:18:28;99634.59;;;16.25;59.85
12897;BME280;6516;35.028;32.372;2023-05-11T03:20:59;99637.88;;;16.30;59.35
12897;BME280;6516;35.028;32.372;2023-05-11T03:23:29;99638.03;;;16.45;59.03
12897;BME280;6516;35.028;32.372;2023-05-11T03:25:58;99636.69;;;16.54;58.92
12897;BME280;6516;35.028;32.372;2023-05-11T03:28:27;99646.06;;;16.44;60.34
12897;BME280;6516;35.028;32.372;2023-05-11T03:30:56;99650.84;;;16.36;60.79
12897;BME280;6516;35.028;32.372;2023-05-11T03:33:24;99646.22;;;16.41;60.46
12897;BME280;6516;35.028;32.372;2023-05-11T03:35:53;99644.22;;;16.46;60.54
12897;BME280;6516;35.028;32.372;2023-05-11T03:38:22;99655.22;;;16.55;60.83
12897;BME280;6516;35.028;32.372;2023-05-11T03:40:51;99668.13;;;16.63;60.94
12897;BME280;6516;35.028;32.372;2023-05-11T03:43:20;99669.41;;;16.73;61.12
12897;BME280;6516;35.028;32.372;2023-05-11T03:45:49;99680.50;;;16.81;61.28
12897;BME280;6516;35.028;32.372;2023-05-11T03:48:19;99681.53;;;16.95;60.46
12897;BME280;6516;35.028;32.372;2023-05-11T03:50:48;99675.41;;;17.10;59.91
12897;BME280;6516;35.028;32.372;2023-05-11T03:53:18;99680.88;;;17.24;59.57
12897;BME280;6516;35.028;32.372;2023-05-11T03:55:46;99678.53;;;17.35;59.76
12897;BME280;6516;35.028;32.372;2023-05-11T03:58:14;99687.91;;;17.59;59.45
12897;BME280;6516;35.028;32.372;2023-05-11T04:00:42;99682.84;;;17.55;59.37
12897;BME280;6516;35.028;32.372;2023-05-11T04:03:11;99688.78;;;17.60;59.64
12897;BME280;6516;35.028;32.372;2023-05-11T04:05:39;99681.88;;;17.56;60.75
12897;BME280;6516;35.028;32.372;2023-05-11T04:08:08;99682.56;;;17.59;61.65
12897;BME280;6516;35.028;32.372;2023-05-11T04:10:37;99675.13;;;17.66;62.38
12897;BME280;6516;35.028;32.372;2023-05-11T04:13:05;99671.38;;;17.85;63.35
12897;BME280;6516;35.028;32.372;2023-05-11T04:15:33;99674.81;;;18.03;64.08
12897;BME280;6516;35.028;32.372;2023-05-11T04:18:02;99676.38;;;18.07;64.92
12897;BME280;6516;35.028;32.372;2023-05-11T04:20:30;99677.50;;;18.18;65.54
12897;BME280;6516;35.028;32.372;2023-05-11T04:22:58;99678.13;;;18.39;65.44
12897;BME280;6516;35.028;32.372;2023-05-11T04:25:26;99677.91;;;18.73;65.28
12897;BME280;6516;35.028;32.372;2023-05-11T04:27:55;99677.53;;;19.08;64.97
12897;BME280;6516;35.028;32.372;2023-05-11T04:30:23;99679.16;;;19.40;63.80
12897;BME280;6516;35.028;32.372;2023-05-11T04:32:51;99675.66;;;19.68;64.26
12897;BME280;6516;35.028;32.372;2023-05-11T04:35:18;99675.81;;;19.93;63.39
12897;BME280;6516;35.028;32.372;2023-05-11T04:37:46;99676.13;;;20.17;62.99
12897;BME280;6516;35.028;32.372;2023-05-11T04:40:14;99680.38;;;20.33;60.86
12897;BME280;6516;35.028;32.372;2023-05-11T04:42:42;99683.13;;;20.58;59.08
12897;BME280;6516;35.028;32.372;2023-05-11T04:45:12;99689.06;;;20.90;57.65
12897;BME280;6516;35.028;32.372;2023-05-11T04:47:39;99690.34;;;21.23;54.03
12897;BME280;6516;35.028;32.372;2023-05-11T04:50:08;99694.34;;;21.55;51.91
12897;BME280;6516;35.028;32.372;2023-05-11T04:52:36;99692.03;;;22.24;51.74
12897;BME280;6516;35.028;32.372;2023-05-11T04:55:04;99688.69;;;22.69;49.12
12897;BME280;6516;35.028;32.372;2023-05-11T04:57:33;99686.28;;;23.01;48.24
12897;BME280;6516;35.028;32.372;2023-05-11T05:00:00;99687.22;;;23.69;49.45
12897;BME280;6516;35.028;32.372;2023-05-11T05:02:30;99679.53;;;24.30;46.77
12897;BME280;6516;35.028;32.372;2023-05-11T05:04:58;99680.19;;;24.76;46.27
12897;BME280;6516;35.028;32.372;2023-05-11T05:07:26;99680.91;;;25.10;45.70
12897;BME280;6516;35.028;32.372;2023-05-11T05:09:54;99676.53;;;25.50;44.10
12897;BME280;6516;35.028;32.372;2023-05-11T05:12:22;99680.25;;;25.79;42.18
12897;BME280;6516;35.028;32.372;2023-05-11T05:14:50;99686.66;;;25.98;40.40
12897;BME280;6516;35.028;32.372;2023-05-11T05:17:17;99683.22;;;26.36;39.48
12897;BME280;6516;35.028;32.372;2023-05-11T05:19:46;99679.84;;;26.43;40.54
12897;BME280;6516;35.028;32.372;2023-05-11T05:22:14;99680.22;;;26.69;41.43
12897;BME280;6516;35.028;32.372;2023-05-11T05:24:42;99688.03;;;26.81;40.82
12897;BME280;6516;35.028;32.372;2023-05-11T05:27:10;99695.59;;;26.38;42.09
12897;BME280;6516;35.028;32.372;2023-05-11T05:29:38;99689.78;;;26.43;42.45
12897;BME280;6516;35.028;32.372;2023-05-11T05:32:06;99693.34;;;26.43;42.98
12897;BME280;6516;35.028;32.372;2023-05-11T05:34:33;99695.78;;;26.56;43.57
12897;BME280;6516;35.028;32.372;2023-05-11T05:37:03;99697.81;;;26.63;43.38
12897;BME280;6516;35.028;32.372;2023-05-11T05:39:31;99696.28;;;26.70;42.93
12897;BME280;6516;35.028;32.372;2023-05-11T05:41:58;99690.75;;;26.81;43.28
12897;BME280;6516;35.028;32.372;2023-05-11T05:44:27;99688.03;;;26.81;42.64
12897;BME280;6516;35.028;32.372;2023-05-11T05:46:57;99686.78;;;27.04;40.69
12897;BME280;6516;35.028;32.372;2023-05-11T05:49:24;99691.59;;;27.10;41.65
12897;BME280;6516;35.028;32.372;2023-05-11T05:51:53;99692.34;;;27.13;41.67
12897;BME280;6516;35.028;32.372;2023-05-11T05:54:22;99692.81;;;27.27;41.30
12897;BME280;6516;35.028;32.372;2023-05-11T05:56:50;99688.78;;;27.41;41.58
12897;BME280;6516;35.028;32.372;2023-05-11T05:59:18;99688.75;;;27.69;41.70
12897;BME280;6516;35.028;32.372;2023-05-11T06:01:48;99678.31;;;27.84;40.58
12897;BME280;6516;35.028;32.372;2023-05-11T06:04:16;99686.97;;;27.97;40.80
12897;BME280;6516;35.028;32.372;2023-05-11T06:06:44;99683.78;;;28.11;40.15
12897;BME280;6516;35.028;32.372;2023-05-11T06:09:12;99689.84;;;28.22;40.05
12897;BME280;6516;35.028;32.372;2023-05-11T06:11:41;99680.81;;;28.41;38.49
12897;BME280;6516;35.028;32.372;2023-05-11T06:14:09;99682.66;;;28.40;37.69
12897;BME280;6516;35.028;32.372;2023-05-11T06:16:36;99685.13;;;28.34;38.12
12897;BME280;6516;35.028;32.372;2023-05-11T06:19:04;99686.31;;;28.22;38.43
12897;BME280;6516;35.028;32.372;2023-05-11T06:21:32;99689.25;;;28.28;38.92
12897;BME280;6516;35.028;32.372;2023-05-11T06:24:00;99687.81;;;28.34;39.11
12897;BME280;6516;35.028;32.372;2023-05-11T06:26:28;99679.22;;;28.48;37.88
12897;BME280;6516;35.028;32.372;2023-05-11T06:28:57;99676.91;;;28.53;36.83
12897;BME280;6516;35.028;32.372;2023-05-11T06:31:25;99682.09;;;28.37;37.21
12897;BME280;6516;35.028;32.372;2023-05-11T06:33:54;99678.97;;;28.32;36.44
12897;BME280;6516;35.028;32.372;2023-05-11T06:36:21;99679.66;;;28.43;37.11
12897;BME280;6516;35.028;32.372;2023-05-11T06:38:49;99681.72;;;28.59;37.11
12897;BME280;6516;35.028;32.372;2023-05-11T06:41:17;99686.88;;;28.52;35.80
12897;BME280;6516;35.028;32.372;2023-05-11T06:43:45;99681.09;;;28.65;35.99
12897;BME280;6516;35.028;32.372;2023-05-11T06:46:15;99675.22;;;28.87;35.69
12897;BME280;6516;35.028;32.372;2023-05-11T06:48:43;99674.28;;;29.05;35.39
12897;BME280;6516;35.028;32.372;2023-05-11T06:51:10;99671.69;;;29.21;35.55
12897;BME280;6516;35.028;32.372;2023-05-11T06:53:38;99663.19;;;29.34;34.30
12897;BME280;6516;35.028;32.372;2023-05-11T06:56:06;99668.03;;;29.30;35.63
12897;BME280;6516;35.028;32.372;2023-05-11T06:58:34;99667.44;;;29.36;35.44
12897;BME280;6516;35.028;32.372;2023-05-11T07:01:02;99675.84;;;29.51;35.19
12897;BME280;6516;35.028;32.372;2023-05-11T07:03:34;99667.00;;;29.66;35.21
12897;BME280;6516;35.028;32.372;2023-05-11T07:06:01;99671.41;;;29.67;33.92
12897;BME280;6516;35.028;32.372;2023-05-11T07:08:29;99676.09;;;29.83;34.54
12897;BME280;6516;35.028;32.372;2023-05-11T07:10:58;99671.41;;;29.93;34.53
12897;BME280;6516;35.028;32.372;2023-05-11T07:13:26;99672.91;;;30.13;35.31
12897;BME280;6516;35.028;32.372;2023-05-11T07:15:57;99678.53;;;30.19;35.16
12897;BME280;6516;35.028;32.372;2023-05-11T07:18:24;99673.03;;;30.45;34.84
12897;BME280;6516;35.028;32.372;2023-05-11T07:20:54;99683.63;;;30.64;35.19
12897;BME280;6516;35.028;32.372;2023-05-11T07:23:22;99683.25;;;30.43;36.28
12897;BME280;6516;35.028;32.372;2023-05-11T07:25:50;99682.41;;;30.50;35.44
12897;BME280;6516;35.028;32.372;2023-05-11T07:28:22;99679.06;;;30.64;35.50
12897;BME280;6516;35.028;32.372;2023-05-11T07:30:49;99681.94;;;30.63;35.80
12897;BME280;6516;35.028;32.372;2023-05-11T07:33:17;99689.91;;;30.56;35.63
12897;BME280;6516;35.028;32.372;2023-05-11T07:35:45;99688.69;;;30.43;35.84
12897;BME280;6516;35.028;32.372;2023-05-11T07:38:15;99684.44;;;30.40;37.60
12897;BME280;6516;35.028;32.372;2023-05-11T07:40:43;99686.78;;;30.77;36.90
12897;BME280;6516;35.028;32.372;2023-05-11T07:43:11;99675.94;;;31.01;36.74
12897;BME280;6516;35.028;32.372;2023-05-11T07:45:38;99679.16;;;31.12;36.86
12897;BME280;6516;35.028;32.372;2023-05-11T07:48:06;99675.28;;;31.15;37.16
12897;BME280;6516;35.028;32.372;2023-05-11T07:50:34;99672.72;;;31.05;37.08
12897;BME280;6516;35.028;32.372;2023-05-11T07:53:02;99683.72;;;30.80;39.17
12897;BME280;6516;35.028;32.372;2023-05-11T07:55:32;99677.34;;;30.55;39.59
12897;BME280;6516;35.028;32.372;2023-05-11T07:58:00;99682.13;;;30.28;40.36
12897;BME280;6516;35.028;32.372;2023-05-11T08:00:28;99674.34;;;30.33;40.34
12897;BME280;6516;35.028;32.372;2023-05-11T08:02:56;99673.00;;;30.37;40.01
12897;BME280;6516;35.028;32.372;2023-05-11T08:05:24;99673.78;;;30.21;40.29
12897;BME280;6516;35.028;32.372;2023-05-11T08:07:52;99679.72;;;29.91;41.15
12897;BME280;6516;35.028;32.372;2023-05-11T08:10:20;99681.66;;;29.73;40.88
12897;BME280;6516;35.028;32.372;2023-05-11T08:12:49;99687.22;;;29.72;42.04
12897;BME280;6516;35.028;32.372;2023-05-11T08:15:17;99684.91;;;29.42;41.35
12897;BME280;6516;35.028;32.372;2023-05-11T08:17:44;99688.81;;;29.39;43.25
12897;BME280;6516;35.028;32.372;2023-05-11T08:20:12;99686.53;;;29.52;41.61
12897;BME280;6516;35.028;32.372;2023-05-11T08:22:40;99689.41;;;29.51;42.17
12897;BME280;6516;35.028;32.372;2023-05-11T08:25:08;99690.03;;;29.45;41.93
12897;BME280;6516;35.028;32.372;2023-05-11T08:27:36;99692.00;;;29.00;42.28
12897;BME280;6516;35.028;32.372;2023-05-11T08:30:06;99688.06;;;29.12;43.56
12897;BME280;6516;35.028;32.372;2023-05-11T08:32:38;99687.19;;;29.46;42.68
12897;BME280;6516;35.028;32.372;2023-05-11T08:35:06;99690.03;;;29.62;43.48
12897;BME280;6516;35.028;32.372;2023-05-11T08:37:34;99688.59;;;30.01;44.08
12897;BME280;6516;35.028;32.372;2023-05-11T08:40:02;99666.84;;;30.27;44.21
12897;BME280;6516;35.028;32.372;2023-05-11T08:42:32;99671.75;;;30.57;43.11
12897;BME280;6516;35.028;32.372;2023-05-11T08:45:01;99667.25;;;30.81;41.32
12897;BME280;6516;35.028;32.372;2023-05-11T08:47:30;99662.69;;;30.98;42.51
12897;BME280;6516;35.028;32.372;2023-05-11T08:49:58;99655.91;;;31.02;43.09
12897;BME280;6516;35.028;32.372;2023-05-11T08:52:26;99658.63;;;30.52;42.25
12897;BME280;6516;35.028;32.372;2023-05-11T08:54:54;99665.31;;;30.66;42.64
12897;BME280;6516;35.028;32.372;2023-05-11T08:57:23;99660.50;;;30.52;42.80
12897;BME280;6516;35.028;32.372;2023-05-11T08:59:53;99659.72;;;30.26;43.06
12897;BME280;6516;35.028;32.372;2023-05-11T09:02:23;99650.47;;;30.52;43.78
12897;BME280;6516;35.028;32.372;2023-05-11T09:04:54;99654.88;;;30.53;43.42
12897;BME280;6516;35.028;32.372;2023-05-11T09:07:23;99652.94;;;30.71;42.64
12897;BME280;6516;35.028;32.372;2023-05-11T09:09:54;99645.31;;;30.91;41.81
12897;BME280;6516;35.028;32.372;2023-05-11T09:12:22;99656.06;;;31.08;41.19
12897;BME280;6516;35.028;32.372;2023-05-11T09:14:53;99647.88;;;31.16;41.38
12897;BME280;6516;35.028;32.372;2023-05-11T09:17:21;99653.16;;;30.94;40.55
12897;BME280;6516;35.028;32.372;2023-05-11T09:20:00;99651.47;;;31.17;39.62
12897;BME280;6516;35.028;32.372;2023-05-11T09:22:31;99645.72;;;31.28;41.28
12897;BME280;6516;35.028;32.372;2023-05-11T09:25:01;99642.66;;;31.31;40.21
12897;BME280;6516;35.028;32.372;2023-05-11T09:27:28;99639.94;;;31.39;41.93
12897;BME280;6516;35.028;32.372;2023-05-11T09:30:09;99646.53;;;31.52;40.33
12897;BME280;6516;35.028;32.372;2023-05-11T09:32:48;99649.44;;;31.51;37.30
12897;BME280;6516;35.028;32.372;2023-05-11T09:35:23;99640.75;;;31.79;39.64
12897;BME280;6516;35.028;32.372;2023-05-11T09:38:03;99637.50;;;31.84;36.17
12897;BME280;6516;35.028;32.372;2023-05-11T09:40:34;99634.19;;;32.12;36.74
12897;BME280;6516;35.028;32.372;2023-05-11T09:43:03;99636.00;;;32.28;35.16
12897;BME280;6516;35.028;32.372;2023-05-11T09:45:43;99628.78;;;32.43;32.50
12897;BME280;6516;35.028;32.372;2023-05-11T09:48:23;99626.66;;;32.61;29.85
12897;BME280;6516;35.028;32.372;2023-05-11T09:50:59;99625.63;;;32.62;28.37
12897;BME280;6516;35.028;32.372;2023-05-11T09:53:39;99621.97;;;33.00;30.67
12897;BME280;6516;35.028;32.372;2023-05-11T09:56:08;99618.88;;;33.03;29.69
12897;BME280;6516;35.028;32.372;2023-05-11T09:58:48;99614.56;;;32.86;31.21
12897;BME280;6516;35.028;32.372;2023-05-11T10:01:18;99614.97;;;32.75;30.72
12897;BME280;6516;35.028;32.372;2023-05-11T10:03:55;99613.28;;;32.74;32.26
12897;BME280;6516;35.028;32.372;2023-05-11T10:06:24;99610.91;;;32.71;31.92
12897;BME280;6516;35.028;32.372;2023-05-11T10:08:53;99603.13;;;32.60;31.15
12897;BME280;6516;35.028;32.372;2023-05-11T10:11:21;99610.94;;;32.63;31.38
12897;BME280;6516;35.028;32.372;2023-05-11T10:13:52;99613.19;;;32.59;33.49
12897;BME280;6516;35.028;32.372;2023-05-11T10:16:20;99620.78;;;32.41;32.47
12897;BME280;6516;35.028;32.372;2023-05-11T10:18:49;99612.31;;;32.36;33.22
12897;BME280;6516;35.028;32.372;2023-05-11T10:21:17;99607.75;;;32.21;33.58
12897;BME280;6516;35.028;32.372;2023-05-11T10:23:46;99603.13;;;32.29;30.07
12897;BME280;6516;35.028;32.372;2023-05-11T10:26:15;99617.63;;;32.14;31.30
12897;BME280;6516;35.028;32.372;2023-05-11T10:28:42;99615.28;;;32.11;32.27
12897;BME280;6516;35.028;32.372;2023-05-11T10:31:10;99614.91;;;32.14;30.02
12897;BME280;6516;35.028;32.372;2023-05-11T10:33:42;99608.41;;;32.31;30.96
12897;BME280;6516;35.028;32.372;2023-05-11T10:36:10;99614.13;;;32.44;31.95
12897;BME280;6516;35.028;32.372;2023-05-11T10:38:38;99615.16;;;32.43;32.50
12897;BME280;6516;35.028;32.372;2023-05-11T10:41:20;99615.66;;;32.46;34.84
12897;BME280;6516;35.028;32.372;2023-05-11T10:44:08;99610.41;;;32.37;35.70
12897;BME280;6516;35.028;32.372;2023-05-11T10:46:55;99606.53;;;32.31;32.95
12897;BME280;6516;35.028;32.372;2023-05-11T10:52:48;99593.47;;;32.19;33.14
12897;BME280;6516;35.028;32.372;2023-05-11T10:55:38;99606.97;;;32.04;34.38
12897;BME280;6516;35.028;32.372;2023-05-11T10:58:22;99603.78;;;31.85;32.88
12897;BME280;6516;35.028;32.372;2023-05-11T11:04:06;99593.81;;;31.53;37.05
12897;BME280;6516;35.028;32.372;2023-05-11T11:06:37;99588.16;;;31.71;35.30
12897;BME280;6516;35.028;32.372;2023-05-11T11:09:07;99574.88;;;31.60;34.06
12897;BME280;6516;35.028;32.372;2023-05-11T11:11:38;99570.84;;;31.56;36.96
12897;BME280;6516;35.028;32.372;2023-05-11T11:14:09;99569.50;;;31.52;38.73
12897;BME280;6516;35.028;32.372;2023-05-11T11:16:37;99577.69;;;31.28;41.57
12897;BME280;6516;35.028;32.372;2023-05-11T11:19:39;99569.84;;;31.01;42.19
12897;BME280;6516;35.028;32.372;2023-05-11T11:22:42;99566.09;;;31.10;42.40
12897;BME280;6516;35.028;32.372;2023-05-11T11:25:12;99569.50;;;31.28;41.83
12897;BME280;6516;35.028;32.372;2023-05-11T11:27:57;99568.84;;;31.42;40.90
12897;BME280;6516;35.028;32.372;2023-05-11T11:30:27;99553.81;;;31.54;40.61
12897;BME280;6516;35.028;32.372;2023-05-11T11:33:31;99544.84;;;31.45;40.45
12897;BME280;6516;35.028;32.372;2023-05-11T11:36:00;99527.69;;;31.29;42.02
12897;BME280;6516;35.028;32.372;2023-05-11T11:38:29;99531.78;;;30.93;43.94
12897;BME280;6516;35.028;32.372;2023-05-11T11:40:58;99538.59;;;30.81;43.56
12897;BME280;6516;35.028;32.372;2023-05-11T11:43:27;99530.88;;;30.44;43.98
12897;BME280;6516;35.028;32.372;2023-05-11T11:45:59;99528.66;;;30.40;43.82
12897;BME280;6516;35.028;32.372;2023-05-11T11:48:31;99531.72;;;30.45;44.48
12897;BME280;6516;35.028;32.372;2023-05-11T11:51:02;99539.38;;;30.57;44.06
12897;BME280;6516;35.028;32.372;2023-05-11T11:54:04;99536.78;;;30.24;45.17
12897;BME280;6516;35.028;32.372;2023-05-11T11:59:14;99539.16;;;30.27;43.28
12897;BME280;6516;35.028;32.372;2023-05-11T12:01:44;99545.34;;;30.61;40.97
12897;BME280;6516;35.028;32.372;2023-05-11T12:04:30;99539.75;;;30.54;43.57
12897;BME280;6516;35.028;32.372;2023-05-11T12:07:24;99534.13;;;30.48;42.11
12897;BME280;6516;35.028;32.372;2023-05-11T12:09:52;99518.88;;;30.05;42.65
12897;BME280;6516;35.028;32.372;2023-05-11T12:12:20;99528.88;;;30.05;42.64
12897;BME280;6516;35.028;32.372;2023-05-11T12:14:48;99526.22;;;29.71;43.06
12897;BME280;6516;35.028;32.372;2023-05-11T12:17:22;99520.69;;;29.55;44.53
12897;BME280;6516;35.028;32.372;2023-05-11T12:19:53;99520.97;;;29.19;45.68
12897;BME280;6516;35.028;32.372;2023-05-11T12:22:22;99513.78;;;29.10;44.74
12897;BME280;6516;35.028;32.372;2023-05-11T12:24:50;99517.91;;;28.96;44.95
12897;BME280;6516;35.028;32.372;2023-05-11T12:27:20;99518.94;;;28.78;43.75
12897;BME280;6516;35.028;32.372;2023-05-11T12:29:50;99518.19;;;28.68;46.67
12897;BME280;6516;35.028;32.372;2023-05-11T12:32:28;99511.22;;;28.65;43.37
12897;BME280;6516;35.028;32.372;2023-05-11T12:34:58;99502.31;;;28.73;44.13
12897;BME280;6516;35.028;32.372;2023-05-11T12:37:27;99491.06;;;28.85;44.22
12897;BME280;6516;35.028;32.372;2023-05-11T12:39:56;99496.38;;;28.95;45.33
12897;BME280;6516;35.028;32.372;2023-05-11T12:42:26;99485.84;;;28.92;46.46
12897;BME280;6516;35.028;32.372;2023-05-11T12:44:55;99509.81;;;28.79;48.36
12897;BME280;6516;35.028;32.372;2023-05-11T12:47:22;99517.72;;;28.55;48.43
12897;BME280;6516;35.028;32.372;2023-05-11T12:49:52;99518.66;;;28.46;49.29
12897;BME280;6516;35.028;32.372;2023-05-11T12:52:22;99516.47;;;28.32;49.17
12897;BME280;6516;35.028;32.372;2023-05-11T12:54:50;99508.94;;;28.08;48.70
12897;BME280;6516;35.028;32.372;2023-05-11T12:57:24;99494.53;;;27.90;48.50
12897;BME280;6516;35.028;32.372;2023-05-11T13:00:10;99492.63;;;27.73;49.52
12897;BME280;6516;35.028;32.372;2023-05-11T13:02:49;99492.97;;;27.61;49.87
12897;BME280;6516;35.028;32.372;2023-05-11T13:05:24;99492.69;;;27.54;51.36
12897;BME280;6516;35.028;32.372;2023-05-11T13:07:57;99480.69;;;27.66;50.05
12897;BME280;6516;35.028;32.372;2023-05-11T13:10:26;99485.56;;;27.90;48.98
12897;BME280;6516;35.028;32.372;2023-05-11T13:12:54;99475.63;;;28.25;47.15
12897;BME280;6516;35.028;32.372;2023-05-11T13:15:23;99488.66;;;28.57;46.06
12897;BME280;6516;35.028;32.372;2023-05-11T13:17:57;99480.41;;;28.66;46.46
12897;BME280;6516;35.028;32.372;2023-05-11T13:20:29;99488.50;;;28.41;48.60
12897;BME280;6516;35.028;32.372;2023-05-11T13:23:03;99489.78;;;28.37;48.49
12897;BME280;6516;35.028;32.372;2023-05-11T13:25:33;99483.03;;;28.06;48.54
12897;BME280;6516;35.028;32.372;2023-05-11T13:28:01;99470.72;;;27.67;49.10